Impacts TAF Board INFO
FOR SITUATIONAL AWARENESS. NOT TO BE USED FOR FLIGHT PLANNING PURPOSES.
IDs:

KLAX - Los Angeles Intl, CA, US

Issued at 1724 UTC 18 Jan 2018
Updated at 1726 UTC 18 Jan 2018
Potential Impact None Slight Moderate High
Time<<19/06Z 19/07Z 19/08Z 19/09Z 19/10Z 19/11Z 19/12Z 19/13Z 19/14Z 19/15Z 19/16Z 19/17Z 19/18Z>>
Type PRVL PRVL PRVL PRVL PRVL PRVL PRVL PRVL PRVL PRVL PRVL PRVL PRVL
VIS >6 >6 >6 >6 >6 >6 >6 >6 >6 >6 >6 >6 >6
CIG 15 15 15 15 15 15 15 15 15 25 25 25 25
Cover OVC OVC OVC OVC OVC OVC OVC OVC OVC OVC OVC OVC OVC
FltCat MVFR MVFR MVFR MVFR MVFR MVFR MVFR MVFR MVFR MVFR MVFR MVFR MVFR
WX -- -- -- -- -- -- -- -- -- -- -- -- --
WDir VRB VRB VRB VRB VRB VRB VRB VRB VRB VRB VRB VRB VRB
WSpd 3 3 3 3 3 3 3 3 3 3 3 3 3
WGst -- -- -- -- -- -- -- -- -- -- -- -- --

Raw TAF
KLAX 181724Z 1818/1924 VRB03KT P6SM BKN200
  FM182000 27010KT P6SM BKN200
  FM190300 VRB03KT P6SM SCT025 BKN150
  FM190600 VRB03KT P6SM OVC015
  FM191500 VRB03KT P6SM BKN025 OVC040
  FM192000 27010KT P6SM SCT025 BKN050


METAR Board
Radar Display
Forecast Discussion

FOR SITUATIONAL AWARENESS. NOT TO BE USED FOR FLIGHT PLANNING PURPOSES.